sensor_id;sensor_type;location;lat;lon;timestamp;P1;durP1;ratioP1;P2;durP2;ratioP2
50225;SDS011;36113;50.742;6.432;2022-09-21T00:01:57;6.55;;;2.35;;
50225;SDS011;36113;50.742;6.432;2022-09-21T00:04:22;2.70;;;2.08;;
50225;SDS011;36113;50.742;6.432;2022-09-21T00:06:47;3.05;;;1.70;;
50225;SDS011;36113;50.742;6.432;2022-09-21T00:09:13;4.28;;;1.98;;
50225;SDS011;36113;50.742;6.432;2022-09-21T00:11:38;2.30;;;1.80;;
50225;SDS011;36113;50.742;6.432;2022-09-21T00:14:05;10.00;;;2.28;;
50225;SDS011;36113;50.742;6.432;2022-09-21T00:16:34;1.90;;;1.75;;
50225;SDS011;36113;50.742;6.432;2022-09-21T00:19:00;3.63;;;2.08;;
50225;SDS011;36113;50.742;6.432;2022-09-21T00:21:26;5.57;;;2.33;;
50225;SDS011;36113;50.742;6.432;2022-09-21T00:23:52;5.50;;;2.23;;
50225;SDS011;36113;50.742;6.432;2022-09-21T00:26:19;3.13;;;1.63;;
50225;SDS011;36113;50.742;6.432;2022-09-21T00:28:51;8.50;;;2.08;;
50225;SDS011;36113;50.742;6.432;2022-09-21T00:31:21;7.60;;;1.98;;
50225;SDS011;36113;50.742;6.432;2022-09-21T00:33:47;3.27;;;1.77;;
50225;SDS011;36113;50.742;6.432;2022-09-21T00:36:15;5.78;;;2.13;;
50225;SDS011;36113;50.742;6.432;2022-09-21T00:38:42;7.25;;;2.05;;
50225;SDS011;36113;50.742;6.432;2022-09-21T00:41:10;3.97;;;1.85;;
50225;SDS011;36113;50.742;6.432;2022-09-21T00:43:38;2.35;;;1.50;;
50225;SDS011;36113;50.742;6.432;2022-09-21T00:46:27;5.80;;;2.20;;
50225;SDS011;36113;50.742;6.432;2022-09-21T00:48:55;4.43;;;1.55;;
50225;SDS011;36113;50.742;6.432;2022-09-21T00:53:47;5.40;;;1.92;;
50225;SDS011;36113;50.742;6.432;2022-09-21T00:56:18;6.22;;;2.33;;
50225;SDS011;36113;50.742;6.432;2022-09-21T00:58:45;3.78;;;1.95;;
50225;SDS011;36113;50.742;6.432;2022-09-21T01:01:14;3.40;;;2.00;;
50225;SDS011;36113;50.742;6.432;2022-09-21T01:03:40;1.90;;;1.55;;
50225;SDS011;36113;50.742;6.432;2022-09-21T01:06:10;4.97;;;1.67;;
50225;SDS011;36113;50.742;6.432;2022-09-21T01:08:36;9.73;;;2.00;;
50225;SDS011;36113;50.742;6.432;2022-09-21T01:25:19;3.42;;;1.90;;
50225;SDS011;36113;50.742;6.432;2022-09-21T01:27:58;2.35;;;1.65;;
50225;SDS011;36113;50.742;6.432;2022-09-21T01:30:32;4.03;;;1.90;;
50225;SDS011;36113;50.742;6.432;2022-09-21T01:33:04;6.95;;;2.70;;
50225;SDS011;36113;50.742;6.432;2022-09-21T01:35:36;5.32;;;2.38;;
50225;SDS011;36113;50.742;6.432;2022-09-21T01:38:09;3.70;;;2.03;;
50225;SDS011;36113;50.742;6.432;2022-09-21T01:40:41;5.38;;;2.17;;
50225;SDS011;36113;50.742;6.432;2022-09-21T01:43:13;3.90;;;2.53;;
50225;SDS011;36113;50.742;6.432;2022-09-21T01:45:45;4.43;;;2.20;;
50225;SDS011;36113;50.742;6.432;2022-09-21T01:48:15;2.75;;;2.28;;
50225;SDS011;36113;50.742;6.432;2022-09-21T01:50:44;5.55;;;2.50;;
50225;SDS011;36113;50.742;6.432;2022-09-21T01:53:22;4.63;;;2.60;;
50225;SDS011;36113;50.742;6.432;2022-09-21T01:55:56;5.63;;;1.98;;
50225;SDS011;36113;50.742;6.432;2022-09-21T01:58:32;3.17;;;2.30;;
50225;SDS011;36113;50.742;6.432;2022-09-21T02:01:17;2.72;;;1.98;;
50225;SDS011;36113;50.742;6.432;2022-09-21T02:03:56;3.60;;;2.33;;
50225;SDS011;36113;50.742;6.432;2022-09-21T02:06:25;3.88;;;1.90;;
50225;SDS011;36113;50.742;6.432;2022-09-21T02:08:54;2.55;;;2.25;;
50225;SDS011;36113;50.742;6.432;2022-09-21T02:11:20;7.70;;;2.65;;
50225;SDS011;36113;50.742;6.432;2022-09-21T02:13:46;2.92;;;1.73;;
50225;SDS011;36113;50.742;6.432;2022-09-21T02:32:48;6.53;;;2.45;;
50225;SDS011;36113;50.742;6.432;2022-09-21T02:43:11;4.53;;;2.03;;
50225;SDS011;36113;50.742;6.432;2022-09-21T02:45:47;2.13;;;1.92;;
50225;SDS011;36113;50.742;6.432;2022-09-21T02:48:19;5.45;;;2.13;;
50225;SDS011;36113;50.742;6.432;2022-09-21T02:50:55;7.03;;;2.00;;
50225;SDS011;36113;50.742;6.432;2022-09-21T02:53:24;3.03;;;1.90;;
50225;SDS011;36113;50.742;6.432;2022-09-21T02:55:53;7.68;;;2.25;;
50225;SDS011;36113;50.742;6.432;2022-09-21T02:58:21;5.25;;;2.17;;
50225;SDS011;36113;50.742;6.432;2022-09-21T03:00:50;6.22;;;2.22;;
50225;SDS011;36113;50.742;6.432;2022-09-21T03:03:20;7.57;;;1.98;;
50225;SDS011;36113;50.742;6.432;2022-09-21T03:05:47;3.70;;;2.13;;
50225;SDS011;36113;50.742;6.432;2022-09-21T03:08:17;5.05;;;2.15;;
50225;SDS011;36113;50.742;6.432;2022-09-21T03:10:43;7.57;;;1.98;;
50225;SDS011;36113;50.742;6.432;2022-09-21T03:13:10;3.92;;;1.98;;
50225;SDS011;36113;50.742;6.432;2022-09-21T03:15:36;8.00;;;2.65;;
50225;SDS011;36113;50.742;6.432;2022-09-21T03:18:03;2.30;;;1.73;;
50225;SDS011;36113;50.742;6.432;2022-09-21T03:20:31;2.97;;;2.20;;
50225;SDS011;36113;50.742;6.432;2022-09-21T03:22:56;5.32;;;2.10;;
50225;SDS011;36113;50.742;6.432;2022-09-21T03:25:22;4.45;;;1.77;;
50225;SDS011;36113;50.742;6.432;2022-09-21T03:27:47;2.75;;;2.33;;
50225;SDS011;36113;50.742;6.432;2022-09-21T03:30:13;3.53;;;1.88;;
50225;SDS011;36113;50.742;6.432;2022-09-21T03:32:38;8.50;;;2.22;;
50225;SDS011;36113;50.742;6.432;2022-09-21T03:35:03;3.97;;;2.25;;
50225;SDS011;36113;50.742;6.432;2022-09-21T03:37:29;2.85;;;2.00;;
50225;SDS011;36113;50.742;6.432;2022-09-21T03:39:55;4.57;;;1.75;;
50225;SDS011;36113;50.742;6.432;2022-09-21T03:42:20;2.88;;;1.90;;
50225;SDS011;36113;50.742;6.432;2022-09-21T03:44:45;2.85;;;1.98;;
50225;SDS011;36113;50.742;6.432;2022-09-21T03:47:10;3.67;;;2.08;;
50225;SDS011;36113;50.742;6.432;2022-09-21T03:49:36;2.80;;;2.35;;
50225;SDS011;36113;50.742;6.432;2022-09-21T03:52:02;6.07;;;2.17;;
50225;SDS011;36113;50.742;6.432;2022-09-21T03:54:27;3.88;;;2.40;;
50225;SDS011;36113;50.742;6.432;2022-09-21T03:56:53;7.10;;;3.00;;
50225;SDS011;36113;50.742;6.432;2022-09-21T03:59:18;4.45;;;2.42;;
50225;SDS011;36113;50.742;6.432;2022-09-21T04:01:44;5.07;;;2.30;;
50225;SDS011;36113;50.742;6.432;2022-09-21T04:04:10;2.85;;;2.63;;
50225;SDS011;36113;50.742;6.432;2022-09-21T04:06:35;2.65;;;1.88;;
50225;SDS011;36113;50.742;6.432;2022-09-21T04:09:01;2.53;;;1.80;;
50225;SDS011;36113;50.742;6.432;2022-09-21T04:11:27;4.47;;;2.50;;
50225;SDS011;36113;50.742;6.432;2022-09-21T04:13:54;6.13;;;2.05;;
50225;SDS011;36113;50.742;6.432;2022-09-21T04:16:25;5.50;;;2.50;;
50225;SDS011;36113;50.742;6.432;2022-09-21T04:18:51;2.53;;;2.17;;
50225;SDS011;36113;50.742;6.432;2022-09-21T04:21:17;4.97;;;2.60;;
50225;SDS011;36113;50.742;6.432;2022-09-21T04:23:42;5.32;;;2.20;;
50225;SDS011;36113;50.742;6.432;2022-09-21T04:29:05;4.88;;;2.67;;
50225;SDS011;36113;50.742;6.432;2022-09-21T04:31:31;4.22;;;2.40;;
50225;SDS011;36113;50.742;6.432;2022-09-21T04:33:57;4.93;;;3.15;;
50225;SDS011;36113;50.742;6.432;2022-09-21T04:36:23;6.80;;;2.58;;
50225;SDS011;36113;50.742;6.432;2022-09-21T04:38:51;3.72;;;2.25;;
50225;SDS011;36113;50.742;6.432;2022-09-21T04:41:17;6.72;;;2.83;;
50225;SDS011;36113;50.742;6.432;2022-09-21T04:43:46;5.03;;;2.58;;
50225;SDS011;36113;50.742;6.432;2022-09-21T04:46:13;5.55;;;2.72;;
50225;SDS011;36113;50.742;6.432;2022-09-21T04:48:40;7.30;;;2.97;;
50225;SDS011;36113;50.742;6.432;2022-09-21T04:51:06;4.60;;;2.17;;
50225;SDS011;36113;50.742;6.432;2022-09-21T04:53:33;7.32;;;2.70;;
50225;SDS011;36113;50.742;6.432;2022-09-21T04:58:25;3.10;;;2.90;;
50225;SDS011;36113;50.742;6.432;2022-09-21T05:00:51;7.68;;;4.10;;
50225;SDS011;36113;50.742;6.432;2022-09-21T05:03:19;6.15;;;3.42;;
50225;SDS011;36113;50.742;6.432;2022-09-21T05:05:45;6.95;;;3.75;;
50225;SDS011;36113;50.742;6.432;2022-09-21T05:08:14;13.15;;;3.40;;
50225;SDS011;36113;50.742;6.432;2022-09-21T05:10:40;5.70;;;3.58;;
50225;SDS011;36113;50.742;6.432;2022-09-21T05:13:06;3.50;;;3.17;;
50225;SDS011;36113;50.742;6.432;2022-09-21T05:15:31;8.50;;;3.85;;
50225;SDS011;36113;50.742;6.432;2022-09-21T05:17:57;4.47;;;3.60;;
50225;SDS011;36113;50.742;6.432;2022-09-21T05:20:22;7.60;;;3.58;;
50225;SDS011;36113;50.742;6.432;2022-09-21T05:22:48;6.07;;;3.63;;
50225;SDS011;36113;50.742;6.432;2022-09-21T05:25:13;5.82;;;4.50;;
50225;SDS011;36113;50.742;6.432;2022-09-21T05:27:38;6.18;;;5.47;;
50225;SDS011;36113;50.742;6.432;2022-09-21T05:30:04;6.55;;;5.65;;
50225;SDS011;36113;50.742;6.432;2022-09-21T05:32:44;8.15;;;4.78;;
50225;SDS011;36113;50.742;6.432;2022-09-21T05:35:18;14.40;;;5.82;;
50225;SDS011;36113;50.742;6.432;2022-09-21T05:37:55;8.60;;;5.22;;
50225;SDS011;36113;50.742;6.432;2022-09-21T05:40:24;10.60;;;6.55;;
50225;SDS011;36113;50.742;6.432;2022-09-21T05:42:50;6.78;;;5.30;;
50225;SDS011;36113;50.742;6.432;2022-09-21T05:45:16;7.32;;;5.80;;
50225;SDS011;36113;50.742;6.432;2022-09-21T05:58:24;9.25;;;6.03;;
50225;SDS011;36113;50.742;6.432;2022-09-21T06:03:34;10.50;;;6.57;;
50225;SDS011;36113;50.742;6.432;2022-09-21T06:06:00;14.27;;;6.05;;
50225;SDS011;36113;50.742;6.432;2022-09-21T06:08:26;9.83;;;5.27;;
50225;SDS011;36113;50.742;6.432;2022-09-21T06:10:52;8.43;;;6.35;;
50225;SDS011;36113;50.742;6.432;2022-09-21T06:13:18;11.85;;;5.97;;
50225;SDS011;36113;50.742;6.432;2022-09-21T06:15:44;10.98;;;5.90;;
50225;SDS011;36113;50.742;6.432;2022-09-21T06:18:09;7.20;;;6.55;;
50225;SDS011;36113;50.742;6.432;2022-09-21T06:20:35;11.20;;;5.88;;
50225;SDS011;36113;50.742;6.432;2022-09-21T06:25:27;15.48;;;7.80;;
50225;SDS011;36113;50.742;6.432;2022-09-21T06:27:52;12.70;;;7.38;;
50225;SDS011;36113;50.742;6.432;2022-09-21T06:30:17;14.23;;;5.97;;
50225;SDS011;36113;50.742;6.432;2022-09-21T06:32:43;7.55;;;5.55;;
50225;SDS011;36113;50.742;6.432;2022-09-21T06:35:08;11.32;;;5.50;;
50225;SDS011;36113;50.742;6.432;2022-09-21T06:37:33;6.32;;;4.10;;
50225;SDS011;36113;50.742;6.432;2022-09-21T06:39:59;4.75;;;3.88;;
50225;SDS011;36113;50.742;6.432;2022-09-21T06:42:25;6.80;;;3.95;;
50225;SDS011;36113;50.742;6.432;2022-09-21T06:44:51;7.88;;;4.85;;
50225;SDS011;36113;50.742;6.432;2022-09-21T06:47:17;13.48;;;5.90;;
50225;SDS011;36113;50.742;6.432;2022-09-21T06:49:42;8.27;;;6.43;;
50225;SDS011;36113;50.742;6.432;2022-09-21T06:52:07;13.20;;;7.03;;
50225;SDS011;36113;50.742;6.432;2022-09-21T06:54:33;12.25;;;6.18;;
50225;SDS011;36113;50.742;6.432;2022-09-21T06:56:58;12.00;;;7.43;;
50225;SDS011;36113;50.742;6.432;2022-09-21T06:59:23;19.40;;;7.30;;
50225;SDS011;36113;50.742;6.432;2022-09-21T07:01:49;11.63;;;7.65;;
50225;SDS011;36113;50.742;6.432;2022-09-21T07:04:14;8.90;;;6.00;;
50225;SDS011;36113;50.742;6.432;2022-09-21T07:06:39;5.05;;;4.47;;
50225;SDS011;36113;50.742;6.432;2022-09-21T07:09:05;8.65;;;5.25;;
50225;SDS011;36113;50.742;6.432;2022-09-21T07:11:30;7.82;;;4.85;;
50225;SDS011;36113;50.742;6.432;2022-09-21T07:13:55;5.30;;;4.80;;
50225;SDS011;36113;50.742;6.432;2022-09-21T07:16:22;9.18;;;5.60;;
50225;SDS011;36113;50.742;6.432;2022-09-21T07:18:48;7.45;;;4.68;;
50225;SDS011;36113;50.742;6.432;2022-09-21T07:21:14;6.55;;;4.15;;
50225;SDS011;36113;50.742;6.432;2022-09-21T07:23:39;7.40;;;5.30;;
50225;SDS011;36113;50.742;6.432;2022-09-21T07:26:05;18.38;;;6.85;;
50225;SDS011;36113;50.742;6.432;2022-09-21T07:28:35;11.40;;;6.20;;
50225;SDS011;36113;50.742;6.432;2022-09-21T07:31:11;11.35;;;6.57;;
50225;SDS011;36113;50.742;6.432;2022-09-21T07:33:41;9.88;;;6.68;;
50225;SDS011;36113;50.742;6.432;2022-09-21T07:36:07;10.10;;;6.10;;
50225;SDS011;36113;50.742;6.432;2022-09-21T07:38:37;5.38;;;4.88;;
50225;SDS011;36113;50.742;6.432;2022-09-21T07:41:04;6.38;;;5.43;;
50225;SDS011;36113;50.742;6.432;2022-09-21T07:43:34;11.40;;;6.13;;
50225;SDS011;36113;50.742;6.432;2022-09-21T07:46:00;9.13;;;6.15;;
50225;SDS011;36113;50.742;6.432;2022-09-21T07:48:28;10.65;;;9.32;;
50225;SDS011;36113;50.742;6.432;2022-09-21T07:50:54;9.63;;;6.33;;
50225;SDS011;36113;50.742;6.432;2022-09-21T07:53:24;15.80;;;6.60;;
50225;SDS011;36113;50.742;6.432;2022-09-21T07:55:50;12.00;;;6.97;;
50225;SDS011;36113;50.742;6.432;2022-09-21T07:58:15;9.85;;;6.78;;
50225;SDS011;36113;50.742;6.432;2022-09-21T08:01:03;7.40;;;4.15;;
50225;SDS011;36113;50.742;6.432;2022-09-21T08:03:30;10.65;;;6.22;;
50225;SDS011;36113;50.742;6.432;2022-09-21T08:05:57;11.35;;;7.45;;
50225;SDS011;36113;50.742;6.432;2022-09-21T08:08:23;13.30;;;7.40;;
50225;SDS011;36113;50.742;6.432;2022-09-21T08:10:49;16.93;;;8.17;;
50225;SDS011;36113;50.742;6.432;2022-09-21T08:13:17;12.40;;;7.65;;
50225;SDS011;36113;50.742;6.432;2022-09-21T08:15:42;18.20;;;8.25;;
50225;SDS011;36113;50.742;6.432;2022-09-21T08:18:07;9.30;;;6.78;;
50225;SDS011;36113;50.742;6.432;2022-09-21T08:20:33;10.25;;;7.30;;
50225;SDS011;36113;50.742;6.432;2022-09-21T08:22:58;11.00;;;6.65;;
50225;SDS011;36113;50.742;6.432;2022-09-21T08:25:24;10.13;;;6.50;;
50225;SDS011;36113;50.742;6.432;2022-09-21T08:27:49;8.65;;;6.35;;
50225;SDS011;36113;50.742;6.432;2022-09-21T08:30:15;13.48;;;6.97;;
50225;SDS011;36113;50.742;6.432;2022-09-21T08:32:40;6.97;;;6.13;;
50225;SDS011;36113;50.742;6.432;2022-09-21T08:35:06;14.93;;;6.00;;
50225;SDS011;36113;50.742;6.432;2022-09-21T08:37:32;9.13;;;5.60;;
50225;SDS011;36113;50.742;6.432;2022-09-21T08:40:00;9.35;;;5.35;;
50225;SDS011;36113;50.742;6.432;2022-09-21T08:42:44;8.30;;;5.13;;
50225;SDS011;36113;50.742;6.432;2022-09-21T08:45:32;13.85;;;6.07;;
50225;SDS011;36113;50.742;6.432;2022-09-21T08:48:02;8.80;;;5.05;;
50225;SDS011;36113;50.742;6.432;2022-09-21T08:50:36;11.38;;;5.13;;
50225;SDS011;36113;50.742;6.432;2022-09-21T08:53:32;9.20;;;5.43;;
50225;SDS011;36113;50.742;6.432;2022-09-21T08:56:01;8.68;;;5.60;;
50225;SDS011;36113;50.742;6.432;2022-09-21T08:58:28;10.48;;;5.63;;
50225;SDS011;36113;50.742;6.432;2022-09-21T09:01:13;11.18;;;5.50;;
50225;SDS011;36113;50.742;6.432;2022-09-21T09:11:56;8.15;;;5.18;;
50225;SDS011;36113;50.742;6.432;2022-09-21T09:22:36;5.00;;;4.07;;
50225;SDS011;36113;50.742;6.432;2022-09-21T09:28:15;9.68;;;4.03;;
50225;SDS011;36113;50.742;6.432;2022-09-21T09:30:50;4.78;;;3.83;;
50225;SDS011;36113;50.742;6.432;2022-09-21T09:33:25;8.50;;;4.65;;
50225;SDS011;36113;50.742;6.432;2022-09-21T09:35:57;7.65;;;4.72;;
50225;SDS011;36113;50.742;6.432;2022-09-21T09:38:28;7.90;;;5.10;;
50225;SDS011;36113;50.742;6.432;2022-09-21T09:41:09;11.20;;;4.93;;
50225;SDS011;36113;50.742;6.432;2022-09-21T09:51:47;6.55;;;3.22;;
50225;SDS011;36113;50.742;6.432;2022-09-21T09:54:15;8.65;;;4.38;;
50225;SDS011;36113;50.742;6.432;2022-09-21T09:56:42;7.43;;;3.97;;
50225;SDS011;36113;50.742;6.432;2022-09-21T09:59:13;10.63;;;4.97;;
50225;SDS011;36113;50.742;6.432;2022-09-21T10:01:43;5.88;;;3.85;;
50225;SDS011;36113;50.742;6.432;2022-09-21T10:04:14;6.22;;;4.13;;
50225;SDS011;36113;50.742;6.432;2022-09-21T10:06:41;9.00;;;4.32;;
50225;SDS011;36113;50.742;6.432;2022-09-21T10:09:27;3.92;;;3.53;;
50225;SDS011;36113;50.742;6.432;2022-09-21T10:11:56;5.97;;;4.50;;
50225;SDS011;36113;50.742;6.432;2022-09-21T10:14:28;9.18;;;3.80;;
50225;SDS011;36113;50.742;6.432;2022-09-21T10:17:00;5.88;;;4.28;;
50225;SDS011;36113;50.742;6.432;2022-09-21T10:19:30;4.10;;;2.90;;
50225;SDS011;36113;50.742;6.432;2022-09-21T10:21:57;4.38;;;2.20;;
50225;SDS011;36113;50.742;6.432;2022-09-21T10:24:25;5.20;;;1.85;;
50225;SDS011;36113;50.742;6.432;2022-09-21T10:26:56;2.40;;;2.08;;
50225;SDS011;36113;50.742;6.432;2022-09-21T10:29:30;4.13;;;2.53;;
50225;SDS011;36113;50.742;6.432;2022-09-21T10:32:03;2.45;;;2.17;;
50225;SDS011;36113;50.742;6.432;2022-09-21T10:34:40;3.90;;;3.28;;
50225;SDS011;36113;50.742;6.432;2022-09-21T10:37:25;2.90;;;2.40;;
50225;SDS011;36113;50.742;6.432;2022-09-21T10:39:52;6.13;;;3.22;;
50225;SDS011;36113;50.742;6.432;2022-09-21T10:42:18;5.03;;;3.10;;
50225;SDS011;36113;50.742;6.432;2022-09-21T10:49:42;4.78;;;3.10;;
50225;SDS011;36113;50.742;6.432;2022-09-21T10:52:10;9.68;;;3.47;;
50225;SDS011;36113;50.742;6.432;2022-09-21T10:54:35;8.30;;;2.95;;
50225;SDS011;36113;50.742;6.432;2022-09-21T10:57:08;4.30;;;2.65;;
50225;SDS011;36113;50.742;6.432;2022-09-21T10:59:38;2.80;;;2.58;;
50225;SDS011;36113;50.742;6.432;2022-09-21T11:02:22;3.25;;;2.53;;
50225;SDS011;36113;50.742;6.432;2022-09-21T11:04:51;5.60;;;2.58;;
50225;SDS011;36113;50.742;6.432;2022-09-21T11:07:23;4.18;;;2.80;;
50225;SDS011;36113;50.742;6.432;2022-09-21T11:10:07;8.18;;;3.17;;
50225;SDS011;36113;50.742;6.432;2022-09-21T11:18:12;5.68;;;2.70;;
50225;SDS011;36113;50.742;6.432;2022-09-21T11:28:45;3.15;;;2.60;;
50225;SDS011;36113;50.742;6.432;2022-09-21T11:39:52;2.85;;;2.17;;
50225;SDS011;36113;50.742;6.432;2022-09-21T11:53:26;5.60;;;1.70;;
50225;SDS011;36113;50.742;6.432;2022-09-21T12:04:44;3.75;;;1.58;;
50225;SDS011;36113;50.742;6.432;2022-09-21T12:07:39;3.25;;;2.10;;
50225;SDS011;36113;50.742;6.432;2022-09-21T12:18:48;1.70;;;1.17;;
50225;SDS011;36113;50.742;6.432;2022-09-21T12:21:30;5.68;;;1.63;;
50225;SDS011;36113;50.742;6.432;2022-09-21T12:24:20;3.50;;;1.40;;
50225;SDS011;36113;50.742;6.432;2022-09-21T12:26:51;1.75;;;0.98;;
50225;SDS011;36113;50.742;6.432;2022-09-21T12:34:56;2.97;;;1.50;;
50225;SDS011;36113;50.742;6.432;2022-09-21T12:37:28;3.45;;;1.60;;
50225;SDS011;36113;50.742;6.432;2022-09-21T12:39:59;4.35;;;1.50;;
50225;SDS011;36113;50.742;6.432;2022-09-21T12:42:41;3.40;;;1.85;;
50225;SDS011;36113;50.742;6.432;2022-09-21T12:45:14;1.70;;;1.45;;
50225;SDS011;36113;50.742;6.432;2022-09-21T12:53:27;6.82;;;2.00;;
50225;SDS011;36113;50.742;6.432;2022-09-21T12:58:40;2.80;;;1.48;;
50225;SDS011;36113;50.742;6.432;2022-09-21T13:01:32;1.55;;;1.45;;
50225;SDS011;36113;50.742;6.432;2022-09-21T13:04:34;4.97;;;1.60;;
50225;SDS011;36113;50.742;6.432;2022-09-21T13:09:54;6.03;;;1.37;;
50225;SDS011;36113;50.742;6.432;2022-09-21T13:12:22;2.38;;;1.45;;
50225;SDS011;36113;50.742;6.432;2022-09-21T13:14:53;3.35;;;1.30;;
50225;SDS011;36113;50.742;6.432;2022-09-21T13:17:25;1.88;;;1.23;;
50225;SDS011;36113;50.742;6.432;2022-09-21T13:19:58;4.07;;;1.20;;
50225;SDS011;36113;50.742;6.432;2022-09-21T13:22:45;2.72;;;1.40;;
50225;SDS011;36113;50.742;6.432;2022-09-21T13:25:21;2.08;;;1.38;;
50225;SDS011;36113;50.742;6.432;2022-09-21T13:33:01;4.63;;;1.48;;
50225;SDS011;36113;50.742;6.432;2022-09-21T13:38:24;1.88;;;1.40;;
50225;SDS011;36113;50.742;6.432;2022-09-21T13:40:59;3.70;;;1.40;;
50225;SDS011;36113;50.742;6.432;2022-09-21T13:51:48;1.58;;;1.48;;
50225;SDS011;36113;50.742;6.432;2022-09-21T13:54:14;2.78;;;1.80;;
50225;SDS011;36113;50.742;6.432;2022-09-21T13:56:39;2.63;;;2.20;;
50225;SDS011;36113;50.742;6.432;2022-09-21T13:59:11;1.83;;;1.40;;
50225;SDS011;36113;50.742;6.432;2022-09-21T14:01:46;3.70;;;1.50;;
50225;SDS011;36113;50.742;6.432;2022-09-21T14:07:01;2.80;;;2.30;;
50225;SDS011;36113;50.742;6.432;2022-09-21T14:09:30;4.63;;;2.08;;
50225;SDS011;36113;50.742;6.432;2022-09-21T14:12:19;2.30;;;1.65;;
50225;SDS011;36113;50.742;6.432;2022-09-21T14:18:16;2.55;;;1.60;;
50225;SDS011;36113;50.742;6.432;2022-09-21T14:23:32;3.50;;;1.20;;
50225;SDS011;36113;50.742;6.432;2022-09-21T14:25:59;2.17;;;1.35;;
50225;SDS011;36113;50.742;6.432;2022-09-21T14:31:07;2.40;;;1.40;;
50225;SDS011;36113;50.742;6.432;2022-09-21T14:33:45;2.97;;;1.50;;
50225;SDS011;36113;50.742;6.432;2022-09-21T14:36:18;1.80;;;1.70;;
50225;SDS011;36113;50.742;6.432;2022-09-21T14:38:54;1.27;;;1.15;;
50225;SDS011;36113;50.742;6.432;2022-09-21T14:41:24;3.55;;;1.60;;
50225;SDS011;36113;50.742;6.432;2022-09-21T14:43:56;6.80;;;1.70;;
50225;SDS011;36113;50.742;6.432;2022-09-21T14:46:35;4.47;;;1.77;;
50225;SDS011;36113;50.742;6.432;2022-09-21T14:52:14;3.00;;;1.50;;
50225;SDS011;36113;50.742;6.432;2022-09-21T14:54:54;3.85;;;1.40;;
50225;SDS011;36113;50.742;6.432;2022-09-21T15:00:16;2.00;;;1.85;;
50225;SDS011;36113;50.742;6.432;2022-09-21T15:05:52;4.43;;;1.73;;
50225;SDS011;36113;50.742;6.432;2022-09-21T15:12:16;2.22;;;1.50;;
50225;SDS011;36113;50.742;6.432;2022-09-21T15:14:46;5.78;;;1.77;;
50225;SDS011;36113;50.742;6.432;2022-09-21T15:17:23;5.68;;;3.28;;
50225;SDS011;36113;50.742;6.432;2022-09-21T15:19:50;1.67;;;1.58;;
50225;SDS011;36113;50.742;6.432;2022-09-21T15:22:17;1.57;;;1.47;;
50225;SDS011;36113;50.742;6.432;2022-09-21T15:24:51;2.25;;;1.70;;
50225;SDS011;36113;50.742;6.432;2022-09-21T15:27:18;2.15;;;1.27;;
50225;SDS011;36113;50.742;6.432;2022-09-21T15:29:48;7.43;;;2.95;;
50225;SDS011;36113;50.742;6.432;2022-09-21T15:32:36;3.10;;;2.80;;
50225;SDS011;36113;50.742;6.432;2022-09-21T15:35:05;3.28;;;1.40;;
50225;SDS011;36113;50.742;6.432;2022-09-21T15:37:41;1.55;;;1.35;;
50225;SDS011;36113;50.742;6.432;2022-09-21T15:40:26;1.73;;;1.20;;
50225;SDS011;36113;50.742;6.432;2022-09-21T15:45:47;1.83;;;0.97;;
50225;SDS011;36113;50.742;6.432;2022-09-21T15:48:18;2.08;;;1.15;;
50225;SDS011;36113;50.742;6.432;2022-09-21T15:50:46;2.58;;;1.08;;
50225;SDS011;36113;50.742;6.432;2022-09-21T15:53:19;1.10;;;1.05;;
50225;SDS011;36113;50.742;6.432;2022-09-21T15:55:50;1.55;;;1.00;;
50225;SDS011;36113;50.742;6.432;2022-09-21T16:01:02;3.13;;;1.00;;
50225;SDS011;36113;50.742;6.432;2022-09-21T16:03:39;1.35;;;1.10;;
50225;SDS011;36113;50.742;6.432;2022-09-21T16:06:25;2.58;;;1.50;;
50225;SDS011;36113;50.742;6.432;2022-09-21T16:08:52;1.55;;;1.00;;
50225;SDS011;36113;50.742;6.432;2022-09-21T16:11:19;1.30;;;1.20;;
50225;SDS011;36113;50.742;6.432;2022-09-21T16:14:11;0.90;;;0.90;;
50225;SDS011;36113;50.742;6.432;2022-09-21T16:20:23;1.02;;;1.00;;
50225;SDS011;36113;50.742;6.432;2022-09-21T16:22:41;1.25;;;1.20;;
50225;SDS011;36113;50.742;6.432;2022-09-21T16:27:52;2.05;;;0.90;;
50225;SDS011;36113;50.742;6.432;2022-09-21T16:35:54;1.30;;;1.20;;
50225;SDS011;36113;50.742;6.432;2022-09-21T16:38:20;1.80;;;1.00;;
50225;SDS011;36113;50.742;6.432;2022-09-21T16:40:47;0.77;;;0.77;;
50225;SDS011;36113;50.742;6.432;2022-09-21T16:43:12;3.85;;;1.52;;
50225;SDS011;36113;50.742;6.432;2022-09-21T16:45:38;1.30;;;0.97;;
50225;SDS011;36113;50.742;6.432;2022-09-21T16:48:03;0.90;;;0.90;;
50225;SDS011;36113;50.742;6.432;2022-09-21T16:50:31;6.93;;;1.40;;
50225;SDS011;36113;50.742;6.432;2022-09-21T16:52:57;1.23;;;1.05;;
50225;SDS011;36113;50.742;6.432;2022-09-21T16:55:22;1.90;;;1.00;;
50225;SDS011;36113;50.742;6.432;2022-09-21T16:57:48;1.40;;;1.30;;
50225;SDS011;36113;50.742;6.432;2022-09-21T17:00:14;2.83;;;1.60;;
50225;SDS011;36113;50.742;6.432;2022-09-21T17:02:45;1.48;;;1.38;;
50225;SDS011;36113;50.742;6.432;2022-09-21T17:05:10;2.80;;;1.70;;
50225;SDS011;36113;50.742;6.432;2022-09-21T17:07:46;2.15;;;2.00;;
50225;SDS011;36113;50.742;6.432;2022-09-21T17:10:13;3.17;;;1.60;;
50225;SDS011;36113;50.742;6.432;2022-09-21T17:12:40;2.13;;;1.50;;
50225;SDS011;36113;50.742;6.432;2022-09-21T17:15:05;1.40;;;1.40;;
50225;SDS011;36113;50.742;6.432;2022-09-21T17:17:32;2.67;;;1.35;;
50225;SDS011;36113;50.742;6.432;2022-09-21T17:19:57;1.98;;;1.10;;
50225;SDS011;36113;50.742;6.432;2022-09-21T17:22:30;5.05;;;1.17;;
50225;SDS011;36113;50.742;6.432;2022-09-21T17:24:56;2.42;;;1.60;;
50225;SDS011;36113;50.742;6.432;2022-09-21T17:27:22;2.05;;;1.73;;
50225;SDS011;36113;50.742;6.432;2022-09-21T17:29:50;2.30;;;1.80;;
50225;SDS011;36113;50.742;6.432;2022-09-21T17:32:18;3.58;;;1.92;;
50225;SDS011;36113;50.742;6.432;2022-09-21T17:34:45;2.63;;;1.80;;
50225;SDS011;36113;50.742;6.432;2022-09-21T17:37:13;3.70;;;2.05;;
50225;SDS011;36113;50.742;6.432;2022-09-21T17:39:38;1.70;;;1.60;;
50225;SDS011;36113;50.742;6.432;2022-09-21T17:42:16;2.97;;;2.15;;
50225;SDS011;36113;50.742;6.432;2022-09-21T17:44:53;3.53;;;2.13;;
50225;SDS011;36113;50.742;6.432;2022-09-21T17:47:27;2.88;;;2.60;;
50225;SDS011;36113;50.742;6.432;2022-09-21T17:50:04;3.95;;;3.15;;
50225;SDS011;36113;50.742;6.432;2022-09-21T17:52:41;4.35;;;3.78;;
50225;SDS011;36113;50.742;6.432;2022-09-21T17:55:26;4.90;;;3.20;;
50225;SDS011;36113;50.742;6.432;2022-09-21T17:58:09;3.88;;;3.08;;
50225;SDS011;36113;50.742;6.432;2022-09-21T18:03:19;6.30;;;3.58;;
50225;SDS011;36113;50.742;6.432;2022-09-21T18:05:49;5.75;;;4.60;;
50225;SDS011;36113;50.742;6.432;2022-09-21T18:08:19;5.80;;;4.88;;
50225;SDS011;36113;50.742;6.432;2022-09-21T18:10:55;4.50;;;2.75;;
50225;SDS011;36113;50.742;6.432;2022-09-21T18:14:01;2.25;;;2.05;;
50225;SDS011;36113;50.742;6.432;2022-09-21T18:19:39;4.57;;;2.00;;
50225;SDS011;36113;50.742;6.432;2022-09-21T18:22:16;3.85;;;1.70;;
50225;SDS011;36113;50.742;6.432;2022-09-21T18:24:52;1.83;;;1.73;;
50225;SDS011;36113;50.742;6.432;2022-09-21T18:27:20;3.42;;;1.88;;
50225;SDS011;36113;50.742;6.432;2022-09-21T18:45:52;4.93;;;3.17;;
50225;SDS011;36113;50.742;6.432;2022-09-21T18:54:07;2.97;;;2.22;;
50225;SDS011;36113;50.742;6.432;2022-09-21T18:56:42;3.13;;;2.38;;
50225;SDS011;36113;50.742;6.432;2022-09-21T18:59:08;2.17;;;2.08;;
50225;SDS011;36113;50.742;6.432;2022-09-21T19:01:35;2.00;;;1.90;;
50225;SDS011;36113;50.742;6.432;2022-09-21T19:04:01;5.43;;;2.45;;
50225;SDS011;36113;50.742;6.432;2022-09-21T19:06:38;3.65;;;2.85;;
50225;SDS011;36113;50.742;6.432;2022-09-21T19:20:36;4.85;;;3.30;;
50225;SDS011;36113;50.742;6.432;2022-09-21T19:23:23;5.93;;;3.30;;